N.E. Airport METARS
                                                                                                                                                                                                                                                                                                              KCGF   282045Z 33007KT 10SM CLR 05/M02 A3020                                KCLE   282051Z 32008KT 10SM OVC150 07/M06 A3020 RMK AO2 SLP247 T00671061 56007                                KBKL   282053Z 26005KT 10SM CLR 04/01 A3021 RMK AO2 SLP235 T00440006 56009                                KLNN   282135Z AUTO 27005KT 10SM CLR 04/M01 A3021 RMK AO1 T00441013                                KYNG   282051Z 31009KT 10SM SCT050 BKN250 09/M03 A3014 RMK AO2 SLP215 T00891028 56014                                KPOV   282135Z AUTO 31006KT 10SM CLR 06/M07 A3016 RMK AO2 T00581069 PWINO                                                                                                                                                                                                                                                                                                                                          

Untitled Document   HOME PAGE

 

MAIN TOPICS

 

  Aviation   Operating Modes   SDR   Slow Scan TV   My Logbook   Awards   My Station   Weather   My Projects   Radio History   Hamvention

 

ABOUT

 

  N8MDP   Contact Me

CQ CQ CQ

 

If you have a question or a comment. please do not hesitate to ask here.



Untitled Document

 

Aviation Videos

 

I love flying. And I love to take videos when I fly commercial. Here are some of my favorite videos that I have taken over the years. Most of the videos were taken with my iPhone. So don't be suprised if the video bounces around a bit. Landings and Takeoffs on the runway can be bumpy!!! Click on the video to start. Enjoy!

 

NOTE: These videos don't seem to work in the Apple Safari browser. I'm working to figure out how to get them working.

 

Number of videos available: 30

Untitled Document
Untitled Document

AVIATION TOPICS

 

  Experience   Local Airports   Local METARS   ADS-B   Pictures   Cessna 172 Videos   Jet Videos   CheckWX

 

 

Useful Information

 

Local ADS-B Virtual Radar Sweep

radar

 

METARs for my local airports:

 

Cuyahoga County Airport (KCGF)

 

Cleveland Hopkins International (KCLE)

 

Lake County Executive Airport (KLNN)

 

Burke Lakefront Airport (KBKL)

 

Youngstown-Warren Regional Airport (KYNG)

 

Akron-Canton Regional Airport (KCAK)

 

|   Home   |    N8MDP   |    Aviation   |    Projects   |    Weather   |   Logbook    |    Contact   |


© 2023 , Jonathan Tucker N8MDP. All Rights Reserved.
Image by macrovector_official on Freepik